Time;durP1;ratioP1;P1;durP2;ratioP2;P2;SDS_P1;SDS_P2;PMS_P1;PMS_P2;Temp;Humidity;BMP_temperature;BMP_pressure;BME280_temperature;BME280_humidity;BME280_pressure;Samples;Min_cycle;Max_cycle;Signal;HPM_P1;HPM_P2
2022/05/12 00:01:58;;;;;;;3.33;1.53;;;22.60;98.70;;;;;;5053258;28;20484;-60
2022/05/12 00:04:26;;;;;;;1.90;1.77;;;22.60;98.70;;;;;;5053922;28;20455;-61
2022/05/12 00:06:53;;;;;;;2.30;1.53;;;22.60;99.20;;;;;;5053860;28;20444;-62
2022/05/12 00:09:21;;;;;;;1.57;1.47;;;22.60;99.20;;;;;;5054010;28;20452;-62
2022/05/12 00:11:48;;;;;;;2.80;1.67;;;22.70;99.10;;;;;;5069646;22;20495;-61
2022/05/12 00:14:15;;;;;;;2.47;1.63;;;22.70;99.20;;;;;;5038514;28;20810;-63
2022/05/12 00:16:42;;;;;;;1.87;1.77;;;22.70;99.10;;;;;;5033278;28;20960;-63
2022/05/12 00:19:08;;;;;;;1.90;1.80;;;22.70;99.50;;;;;;5033328;28;20453;-63
2022/05/12 00:21:37;;;;;;;1.83;1.73;;;22.70;99.90;;;;;;5033113;28;20465;-59
2022/05/12 00:24:04;;;;;;;1.87;1.77;;;22.60;99.90;;;;;;5033529;28;20865;-63
2022/05/12 00:26:33;;;;;;;4.10;1.50;;;22.60;99.90;;;;;;5033490;28;20449;-63
2022/05/12 00:29:02;;;;;;;2.20;1.20;;;22.60;99.90;;;;;;5033517;28;20444;-64
2022/05/12 00:31:30;;;;;;;5.57;1.53;;;22.60;99.90;;;;;;5033295;28;20465;-63
2022/05/12 00:33:57;;;;;;;3.73;2.50;;;22.50;99.90;;;;;;5033575;28;20441;-62
2022/05/12 00:36:23;;;;;;;4.53;1.77;;;22.50;99.90;;;;;;5032321;28;20450;-59
2022/05/12 00:38:51;;;;;;;1.47;1.37;;;22.40;99.90;;;;;;5033111;28;20445;-61
2022/05/12 00:41:18;;;;;;;3.53;3.27;;;22.40;99.90;;;;;;5033463;28;20469;-63
2022/05/12 00:43:48;;;;;;;2.53;1.63;;;22.50;99.90;;;;;;5033033;28;20488;-63
2022/05/12 00:46:17;;;;;;;1.80;1.30;;;22.50;99.90;;;;;;5017381;28;20453;-61
2022/05/12 00:48:46;;;;;;;1.97;1.77;;;22.40;99.90;;;;;;5032778;28;20445;-63
2022/05/12 00:51:16;;;;;;;1.80;1.70;;;22.40;99.90;;;;;;5033349;28;20484;-60
2022/05/12 00:53:44;;;;;;;3.50;2.07;;;22.50;99.90;;;;;;5032990;28;20450;-62
2022/05/12 00:56:19;;;;;;;3.80;2.30;;;22.40;99.90;;;;;;5032490;28;20826;-60
2022/05/12 00:58:48;;;;;;;2.63;1.80;;;22.40;99.90;;;;;;5032945;28;20448;-62
2022/05/12 01:01:15;;;;;;;3.43;2.10;;;22.30;99.90;;;;;;5032736;28;20479;-63
2022/05/12 01:03:45;;;;;;;3.53;2.10;;;22.30;99.90;;;;;;5032388;28;20846;-63
2022/05/12 01:06:13;;;;;;;1.90;1.40;;;22.20;99.90;;;;;;5032960;28;20801;-59
2022/05/12 01:08:41;;;;;;;2.47;2.27;;;22.20;99.90;;;;;;5032528;28;20476;-59
2022/05/12 01:11:14;;;;;;;2.23;1.80;;;22.20;99.90;;;;;;5029520;28;20477;-61
2022/05/12 01:13:43;;;;;;;3.30;2.67;;;22.10;99.40;;;;;;5032626;28;20441;-62
2022/05/12 01:16:10;;;;;;;3.83;2.23;;;22.00;98.40;;;;;;5032569;28;20985;-62
2022/05/12 01:18:39;;;;;;;5.90;1.83;;;22.00;98.30;;;;;;5032261;28;20450;-59
2022/05/12 01:21:08;;;;;;;2.00;1.87;;;21.90;98.00;;;;;;5031511;28;20468;-61
2022/05/12 01:23:38;;;;;;;5.73;2.50;;;22.00;97.60;;;;;;5032331;28;20572;-59
2022/05/12 01:26:08;;;;;;;2.00;1.90;;;22.00;97.30;;;;;;5032448;28;20455;-58
2022/05/12 01:28:35;;;;;;;3.10;2.60;;;21.90;97.20;;;;;;5032258;28;20445;-62
2022/05/12 01:31:03;;;;;;;2.23;2.10;;;21.90;97.10;;;;;;5031984;28;20471;-59
2022/05/12 01:33:31;;;;;;;2.10;2.03;;;21.90;96.50;;;;;;5032402;28;20441;-62
2022/05/12 01:35:58;;;;;;;2.23;2.10;;;21.90;96.10;;;;;;5031962;28;20445;-63
2022/05/12 01:38:25;;;;;;;2.17;2.03;;;21.80;95.70;;;;;;5032317;28;20442;-61
2022/05/12 01:40:53;;;;;;;2.37;2.13;;;21.80;95.70;;;;;;5031886;28;20488;-60
2022/05/12 01:43:21;;;;;;;2.07;1.87;;;21.80;95.50;;;;;;5032276;28;20520;-62
2022/05/12 01:45:48;;;;;;;2.27;2.13;;;21.80;95.00;;;;;;5031524;28;20460;-62
2022/05/12 01:48:16;;;;;;;2.13;2.03;;;21.80;95.10;;;;;;5031585;28;20817;-59
2022/05/12 01:50:44;;;;;;;2.50;2.00;;;21.80;95.00;;;;;;5031906;28;20469;-63
2022/05/12 01:53:12;;;;;;;2.87;1.70;;;21.70;95.10;;;;;;5032070;28;20445;-60
2022/05/12 01:55:40;;;;;;;2.00;1.90;;;21.60;95.00;;;;;;5031752;28;20445;-62
2022/05/12 01:58:08;;;;;;;2.20;2.10;;;21.60;94.90;;;;;;5031907;28;20452;-62
2022/05/12 02:00:36;;;;;;;3.83;2.67;;;21.60;95.00;;;;;;5031508;28;20454;-59
2022/05/12 02:03:03;;;;;;;1.73;1.63;;;21.50;94.80;;;;;;5031230;28;20492;-64
2022/05/12 02:05:30;;;;;;;2.53;2.30;;;21.60;94.70;;;;;;5031884;28;20456;-58
2022/05/12 02:07:57;;;;;;;2.10;2.00;;;21.50;94.70;;;;;;5031484;28;20445;-63
2022/05/12 02:10:28;;;;;;;2.30;2.10;;;21.40;94.70;;;;;;5031533;28;20452;-59
2022/05/12 02:12:56;;;;;;;2.90;2.13;;;21.30;95.10;;;;;;5031628;28;20437;-60
2022/05/12 02:15:25;;;;;;;2.97;2.10;;;21.30;95.10;;;;;;5031808;28;20800;-60
2022/05/12 02:17:52;;;;;;;2.40;2.30;;;21.40;94.80;;;;;;5031440;28;20448;-59
2022/05/12 02:20:21;;;;;;;2.60;2.07;;;21.40;94.70;;;;;;5031055;28;20445;-62
2022/05/12 02:22:48;;;;;;;2.40;2.20;;;21.30;95.10;;;;;;5031540;28;20480;-61
2022/05/12 02:25:16;;;;;;;2.77;2.53;;;21.20;95.40;;;;;;5031749;28;20434;-62
2022/05/12 02:27:45;;;;;;;2.10;2.00;;;21.00;96.00;;;;;;5031513;28;20456;-59
2022/05/12 02:30:15;;;;;;;2.20;2.10;;;21.00;96.10;;;;;;5031692;28;20499;-58
2022/05/12 02:32:43;;;;;;;3.30;2.47;;;20.90;96.30;;;;;;5031709;28;20552;-59
2022/05/12 02:35:11;;;;;;;3.40;2.30;;;20.90;96.50;;;;;;5031608;28;20445;-62
2022/05/12 02:37:38;;;;;;;2.40;2.30;;;20.90;96.50;;;;;;5031346;28;20448;-59
2022/05/12 02:40:06;;;;;;;1.97;1.87;;;20.80;95.90;;;;;;5031664;28;20448;-61
2022/05/12 02:42:33;;;;;;;1.70;1.60;;;20.90;95.40;;;;;;5031405;28;20464;-60
2022/05/12 02:44:59;;;;;;;3.07;1.60;;;20.80;94.10;;;;;;5031609;28;20452;-63
2022/05/12 02:47:26;;;;;;;2.57;2.20;;;20.80;93.30;;;;;;5031545;28;20931;-62
2022/05/12 02:49:54;;;;;;;2.10;1.90;;;20.70;93.00;;;;;;5031424;28;20445;-62
2022/05/12 02:52:21;;;;;;;1.70;1.60;;;20.60;92.50;;;;;;5031063;28;21000;-61
2022/05/12 02:54:48;;;;;;;3.30;2.53;;;20.60;92.40;;;;;;5031218;28;20445;-61
2022/05/12 02:57:14;;;;;;;2.13;2.03;;;20.50;92.30;;;;;;5031126;28;20441;-60
2022/05/12 02:59:41;;;;;;;1.67;1.57;;;20.50;91.80;;;;;;5034321;28;20449;-60
2022/05/12 03:02:09;;;;;;;2.77;2.20;;;20.40;91.40;;;;;;5034443;28;20491;-60
2022/05/12 03:04:36;;;;;;;4.60;2.07;;;20.50;91.70;;;;;;5035030;28;20547;-58
2022/05/12 03:07:04;;;;;;;1.67;1.57;;;20.40;90.90;;;;;;5035037;28;20456;-61
2022/05/12 03:09:31;;;;;;;2.10;1.20;;;20.40;90.80;;;;;;5034634;28;20448;-60
2022/05/12 03:11:58;;;;;;;4.13;1.70;;;20.30;90.50;;;;;;5035072;28;20477;-63
2022/05/12 03:14:25;;;;;;;2.73;2.53;;;20.30;90.10;;;;;;5034774;28;20467;-62
2022/05/12 03:16:53;;;;;;;1.97;1.87;;;20.30;89.60;;;;;;5034708;28;20957;-60
2022/05/12 03:19:20;;;;;;;2.03;1.80;;;20.30;89.20;;;;;;5034142;28;20499;-61
2022/05/12 03:21:47;;;;;;;2.10;1.60;;;20.30;89.00;;;;;;5015267;28;20845;-58
2022/05/12 03:24:16;;;;;;;2.50;1.60;;;20.40;88.60;;;;;;5015159;28;20838;-62
2022/05/12 03:26:43;;;;;;;2.70;1.63;;;20.60;87.70;;;;;;5014787;28;20976;-60
2022/05/12 03:29:10;;;;;;;1.57;1.33;;;20.70;87.40;;;;;;5015136;28;20441;-60
2022/05/12 03:31:37;;;;;;;1.60;1.50;;;20.80;87.50;;;;;;5016883;28;20474;-63
2022/05/12 03:34:04;;;;;;;1.53;1.43;;;20.90;86.90;;;;;;5034796;28;20946;-61
2022/05/12 03:36:35;;;;;;;1.47;1.37;;;20.90;87.10;;;;;;5034331;28;20452;-62
2022/05/12 03:39:02;;;;;;;1.57;1.57;;;20.90;86.70;;;;;;5034430;28;20455;-61
2022/05/12 03:41:30;;;;;;;1.67;1.57;;;21.00;87.40;;;;;;5034166;28;20840;-60
2022/05/12 03:46:41;;;;;;;2.07;1.40;;;21.00;87.50;;;;;;5034718;28;20420;-61
2022/05/12 03:49:08;;;;;;;2.90;2.37;;;21.00;87.50;;;;;;5034356;28;20459;-61
2022/05/12 03:51:35;;;;;;;2.13;1.90;;;21.00;87.50;;;;;;5034116;28;20468;-60
2022/05/12 03:54:03;;;;;;;2.30;2.10;;;21.00;87.50;;;;;;5034018;28;20801;-60
2022/05/12 03:56:32;;;;;;;1.23;1.13;;;21.10;86.80;;;;;;5033811;28;20892;-60
2022/05/12 03:58:58;;;;;;;2.20;1.83;;;21.20;86.20;;;;;;5034152;28;20445;-59
2022/05/12 04:01:25;;;;;;;3.47;1.83;;;21.30;86.40;;;;;;5033832;28;20814;-61
2022/05/12 04:03:52;;;;;;;2.00;1.83;;;21.30;86.20;;;;;;5033854;28;21001;-57
2022/05/12 04:06:19;;;;;;;1.77;1.67;;;21.30;85.90;;;;;;5034058;28;20449;-59
2022/05/12 04:08:45;;;;;;;2.03;1.83;;;21.40;85.60;;;;;;5033872;28;20446;-58
2022/05/12 04:11:12;;;;;;;1.50;1.43;;;21.40;85.00;;;;;;5032426;28;20482;-59
2022/05/12 04:13:41;;;;;;;2.00;1.90;;;21.40;84.80;;;;;;5033685;28;20469;-58
2022/05/12 04:16:08;;;;;;;2.03;1.80;;;21.40;84.30;;;;;;5033216;28;20511;-59
2022/05/12 04:18:35;;;;;;;3.00;1.53;;;21.40;83.80;;;;;;5033644;28;20449;-57
2022/05/12 04:21:02;;;;;;;3.53;2.20;;;21.50;83.40;;;;;;5033611;28;20474;-60
2022/05/12 04:23:28;;;;;;;8.03;2.90;;;21.50;83.90;;;;;;5033571;28;20476;-56
2022/05/12 04:25:55;;;;;;;3.97;2.80;;;21.50;90.50;;;;;;5033293;28;20456;-60
2022/05/12 04:28:22;;;;;;;5.20;2.90;;;21.60;91.70;;;;;;5033423;28;20456;-58
2022/05/12 04:30:51;;;;;;;7.10;2.80;;;21.60;93.30;;;;;;5033349;28;20465;-60
2022/05/12 04:36:02;;;;;;;3.93;2.80;;;21.70;94.30;;;;;;5032866;28;20629;-61
2022/05/12 04:38:29;;;;;;;4.60;3.03;;;21.70;95.30;;;;;;5033498;28;20452;-61
2022/05/12 04:40:56;;;;;;;6.67;2.67;;;21.60;95.40;;;;;;5033410;28;20974;-63
2022/05/12 04:43:22;;;;;;;13.23;4.50;;;21.60;94.00;;;;;;5033560;28;20484;-62
2022/05/12 04:45:50;;;;;;;5.60;2.90;;;21.70;93.40;;;;;;5033206;28;20445;-62
2022/05/12 04:48:17;;;;;;;3.40;2.17;;;21.70;92.90;;;;;;5033801;28;20798;-62
2022/05/12 04:50:44;;;;;;;2.30;2.10;;;21.70;92.20;;;;;;5033272;28;20473;-62
2022/05/12 04:53:11;;;;;;;3.90;2.53;;;21.70;91.90;;;;;;5033182;28;20448;-62
2022/05/12 04:55:39;;;;;;;4.80;3.00;;;21.70;91.60;;;;;;5033169;28;20449;-60
2022/05/12 04:58:06;;;;;;;2.17;1.97;;;21.70;91.20;;;;;;5033175;28;20860;-63
2022/05/12 05:00:36;;;;;;;6.73;2.77;;;21.60;90.90;;;;;;5033170;28;20841;-60
2022/05/12 05:03:05;;;;;;;4.70;2.40;;;21.60;90.80;;;;;;5033188;28;20475;-62
2022/05/12 05:05:32;;;;;;;2.63;2.43;;;21.60;90.40;;;;;;5032933;28;20539;-62
2022/05/12 05:07:59;;;;;;;2.00;1.80;;;21.60;90.20;;;;;;5033101;28;20441;-62
2022/05/12 05:10:26;;;;;;;3.43;1.90;;;21.70;89.70;;;;;;5032856;28;20453;-61
2022/05/12 05:12:53;;;;;;;3.57;2.27;;;21.60;89.40;;;;;;5032965;28;20810;-61
2022/05/12 05:15:21;;;;;;;1.80;1.70;;;21.70;89.00;;;;;;5032839;28;20446;-62
2022/05/12 05:17:48;;;;;;;1.60;1.50;;;21.70;88.60;;;;;;5032598;28;20814;-61
2022/05/12 05:20:19;;;;;;;3.13;2.10;;;21.70;88.10;;;;;;5032702;28;20448;-61
2022/05/12 05:22:47;;;;;;;3.40;2.07;;;21.70;87.50;;;;;;5032288;28;20457;-61
2022/05/12 05:25:14;;;;;;;2.40;1.67;;;21.70;87.20;;;;;;5032743;28;20485;-63
2022/05/12 05:27:41;;;;;;;2.70;1.43;;;21.70;86.60;;;;;;5032457;28;20445;-63
2022/05/12 05:30:13;;;;;;;2.27;2.00;;;21.70;86.50;;;;;;5032505;28;20449;-63
2022/05/12 05:32:39;;;;;;;1.90;1.60;;;21.60;86.10;;;;;;5032591;28;20484;-63
2022/05/12 05:35:08;;;;;;;1.87;1.77;;;21.70;86.00;;;;;;5032450;28;20456;-62
2022/05/12 05:37:37;;;;;;;2.10;1.90;;;21.70;85.60;;;;;;5032133;28;20472;-63
2022/05/12 05:40:05;;;;;;;1.53;1.47;;;21.70;85.60;;;;;;5032481;28;20449;-63
2022/05/12 05:42:32;;;;;;;2.00;1.80;;;21.70;85.00;;;;;;5032346;28;20888;-63
2022/05/12 05:44:59;;;;;;;2.30;1.50;;;21.70;84.70;;;;;;5032186;28;20492;-62
2022/05/12 05:47:26;;;;;;;2.67;1.60;;;21.70;84.50;;;;;;5032066;28;20449;-62
2022/05/12 05:49:53;;;;;;;2.17;1.37;;;21.70;84.10;;;;;;5032240;28;20996;-62
2022/05/12 05:55:06;;;;;;;1.20;1.20;;;21.70;83.60;;;;;;5032381;28;20424;-62
2022/05/12 05:57:33;;;;;;;1.67;1.57;;;21.70;83.10;;;;;;5032023;28;20445;-61
2022/05/12 06:00:04;;;;;;;3.07;2.87;;;21.70;82.80;;;;;;5032275;28;20993;-61
2022/05/12 06:02:32;;;;;;;3.50;1.63;;;21.70;82.60;;;;;;5031899;28;20515;-62
2022/05/12 06:04:58;;;;;;;2.93;1.70;;;21.70;82.40;;;;;;5031865;28;20538;-61
2022/05/12 06:07:25;;;;;;;2.23;2.13;;;21.70;82.30;;;;;;5031634;28;20791;-62
2022/05/12 06:09:52;;;;;;;1.47;1.37;;;21.70;81.70;;;;;;5031953;28;20445;-59
2022/05/12 06:12:20;;;;;;;1.13;1.10;;;21.70;81.20;;;;;;5032445;28;20485;-62
2022/05/12 06:14:47;;;;;;;1.60;1.50;;;21.70;80.90;;;;;;5032264;28;20444;-63
2022/05/12 06:17:14;;;;;;;3.47;1.63;;;21.70;80.80;;;;;;5031524;28;20448;-62
2022/05/12 06:19:41;;;;;;;1.63;1.50;;;21.70;80.70;;;;;;5031763;28;20457;-61
2022/05/12 06:22:08;;;;;;;1.90;1.67;;;21.70;80.60;;;;;;5031652;28;20898;-61
2022/05/12 06:24:35;;;;;;;1.33;1.33;;;21.70;80.40;;;;;;5031554;28;20520;-62
2022/05/12 06:27:02;;;;;;;1.23;1.13;;;21.70;80.50;;;;;;5031449;28;20503;-63
2022/05/12 06:29:30;;;;;;;2.20;2.10;;;21.70;80.50;;;;;;5031633;28;20449;-61
2022/05/12 06:31:57;;;;;;;2.30;1.83;;;21.70;80.40;;;;;;5031525;28;20461;-61
2022/05/12 06:34:24;;;;;;;2.20;1.83;;;21.70;80.30;;;;;;5030904;28;20544;-61
2022/05/12 06:36:51;;;;;;;2.57;1.87;;;21.70;80.40;;;;;;5031467;28;20456;-62
2022/05/12 06:39:18;;;;;;;1.97;1.77;;;21.70;80.30;;;;;;5031511;28;20540;-62
2022/05/12 06:41:45;;;;;;;2.07;1.97;;;21.70;80.20;;;;;;5031501;28;20465;-62
2022/05/12 06:44:11;;;;;;;1.63;1.53;;;21.60;80.00;;;;;;5031548;28;20481;-60
2022/05/12 06:46:41;;;;;;;1.80;1.70;;;21.70;80.10;;;;;;5031281;28;20492;-61
2022/05/12 06:49:08;;;;;;;1.73;1.60;;;21.70;80.00;;;;;;5031522;28;20457;-58
2022/05/12 06:51:35;;;;;;;2.23;1.87;;;21.60;79.80;;;;;;5031324;28;21001;-61
2022/05/12 06:54:01;;;;;;;3.90;2.80;;;21.60;79.70;;;;;;5031443;28;20445;-62
2022/05/12 06:56:28;;;;;;;1.90;1.73;;;21.60;79.70;;;;;;5031178;28;20449;-60
2022/05/12 06:58:55;;;;;;;1.53;1.43;;;21.70;79.60;;;;;;5031654;28;20440;-61
2022/05/12 07:01:23;;;;;;;2.00;1.90;;;21.70;79.50;;;;;;5031281;28;20876;-62
2022/05/12 07:03:53;;;;;;;4.43;2.00;;;21.70;79.20;;;;;;5031260;28;20456;-60
2022/05/12 07:06:19;;;;;;;1.83;1.70;;;21.70;78.80;;;;;;5031238;28;20452;-63
2022/05/12 07:08:47;;;;;;;1.90;1.80;;;21.70;78.50;;;;;;5031368;28;20467;-63
2022/05/12 07:11:14;;;;;;;1.70;1.60;;;21.60;78.30;;;;;;5031166;28;20477;-63
2022/05/12 07:13:41;;;;;;;1.93;1.73;;;21.60;78.30;;;;;;5031396;28;20445;-63
2022/05/12 07:16:08;;;;;;;2.33;2.13;;;21.60;77.90;;;;;;5031070;28;20448;-62
2022/05/12 07:18:36;;;;;;;3.30;2.30;;;21.70;77.60;;;;;;5031096;28;20445;-63
2022/05/12 07:26:36;;;;;;;1.90;1.80;;;21.70;76.80;;;;;;5031090;28;20846;-62
2022/05/12 07:29:04;;;;;;;2.13;1.90;;;21.70;76.60;;;;;;5031194;28;20472;-62
2022/05/12 07:31:31;;;;;;;2.63;2.37;;;21.60;76.40;;;;;;5031033;28;20468;-62
2022/05/12 07:33:58;;;;;;;2.50;2.17;;;21.70;76.30;;;;;;5031087;28;20444;-60
2022/05/12 07:36:29;;;;;;;1.90;1.80;;;21.70;75.90;;;;;;5030829;28;20456;-62
2022/05/12 07:38:57;;;;;;;2.47;1.50;;;21.70;75.70;;;;;;5031321;28;20441;-62
2022/05/12 07:41:24;;;;;;;2.27;1.70;;;21.60;75.30;;;;;;5031086;28;20523;-63
2022/05/12 07:43:51;;;;;;;2.37;1.80;;;21.60;75.20;;;;;;5031214;28;20437;-60
2022/05/12 07:46:21;;;;;;;1.77;1.67;;;21.60;75.10;;;;;;5034288;28;20484;-62
2022/05/12 07:48:48;;;;;;;2.07;1.97;;;21.60;75.00;;;;;;5034581;28;20528;-61
2022/05/12 07:51:15;;;;;;;1.90;1.80;;;21.60;74.70;;;;;;5034329;28;20970;-63
2022/05/12 07:53:46;;;;;;;2.27;2.00;;;21.60;74.50;;;;;;5034547;28;20451;-63
2022/05/12 07:56:13;;;;;;;1.20;1.20;;;21.60;74.30;;;;;;5034219;28;20445;-63
2022/05/12 07:58:40;;;;;;;3.73;1.70;;;21.60;73.90;;;;;;5034272;28;20868;-62
2022/05/12 08:01:07;;;;;;;2.10;1.80;;;21.60;73.70;;;;;;5034218;28;20456;-63
2022/05/12 08:03:34;;;;;;;3.63;2.07;;;21.60;73.50;;;;;;5034288;28;20445;-63
2022/05/12 08:06:02;;;;;;;2.93;1.80;;;21.60;73.20;;;;;;5034275;28;20488;-62
2022/05/12 08:08:29;;;;;;;2.20;2.00;;;21.60;73.30;;;;;;5034127;28;20453;-63
2022/05/12 08:10:57;;;;;;;2.83;2.60;;;21.60;73.20;;;;;;5034012;28;20477;-63
2022/05/12 08:13:25;;;;;;;2.03;1.77;;;21.60;73.10;;;;;;5034153;28;20448;-61
2022/05/12 08:15:53;;;;;;;2.43;2.33;;;21.70;73.20;;;;;;5033914;28;20472;-62
2022/05/12 08:18:22;;;;;;;2.37;2.27;;;21.60;72.90;;;;;;5034033;28;20448;-63
2022/05/12 08:20:49;;;;;;;2.73;2.63;;;21.60;72.80;;;;;;5033850;28;20477;-62
2022/05/12 08:23:16;;;;;;;3.77;3.10;;;21.60;72.70;;;;;;5033936;28;20456;-63
2022/05/12 08:25:44;;;;;;;3.03;2.47;;;21.60;72.60;;;;;;5033777;28;20480;-63
2022/05/12 08:28:15;;;;;;;2.60;2.40;;;21.60;72.60;;;;;;5033664;28;20449;-63
2022/05/12 08:30:44;;;;;;;2.30;2.20;;;21.60;72.40;;;;;;5033706;28;20467;-62
2022/05/12 08:33:11;;;;;;;2.80;2.53;;;21.60;72.30;;;;;;5033828;28;20852;-63
2022/05/12 08:35:38;;;;;;;2.43;2.10;;;21.70;72.30;;;;;;5033612;28;20453;-62
2022/05/12 08:38:06;;;;;;;3.17;1.60;;;21.60;72.10;;;;;;5033957;28;20444;-61
2022/05/12 08:40:44;;;;;;;2.57;2.37;;;21.60;72.10;;;;;;5033749;28;20449;-63
2022/05/12 08:43:17;;;;;;;3.13;2.50;;;21.70;72.00;;;;;;5033643;28;20452;-63
2022/05/12 08:45:45;;;;;;;2.13;2.03;;;21.70;72.00;;;;;;5033329;28;20485;-60
2022/05/12 08:48:15;;;;;;;3.70;2.60;;;21.60;71.70;;;;;;5033687;28;20452;-63
2022/05/12 08:50:42;;;;;;;2.77;2.57;;;21.70;71.70;;;;;;5033483;28;20456;-61
2022/05/12 08:53:13;;;;;;;2.37;2.23;;;21.60;71.60;;;;;;5033335;28;20938;-62
2022/05/12 08:55:47;;;;;;;3.27;2.93;;;21.60;71.40;;;;;;5032544;28;20934;-59
2022/05/12 08:58:22;;;;;;;2.93;2.63;;;21.60;71.30;;;;;;5033542;28;20440;-63
2022/05/12 09:00:59;;;;;;;2.00;1.90;;;21.60;71.10;;;;;;5033194;28;20465;-62
2022/05/12 09:03:35;;;;;;;2.20;2.10;;;21.70;71.10;;;;;;5033182;28;20449;-63
2022/05/12 09:06:05;;;;;;;3.60;2.27;;;21.70;70.90;;;;;;5033017;28;20554;-63
2022/05/12 09:08:41;;;;;;;2.67;2.57;;;21.70;70.60;;;;;;5033112;28;20447;-63
2022/05/12 09:11:18;;;;;;;1.50;1.50;;;21.70;70.50;;;;;;5033016;28;20472;-63
2022/05/12 09:13:49;;;;;;;2.10;2.00;;;21.70;70.30;;;;;;5032996;28;20453;-61
2022/05/12 09:16:19;;;;;;;2.23;2.13;;;21.70;70.10;;;;;;5033081;28;20445;-63
2022/05/12 09:18:47;;;;;;;3.60;3.30;;;21.70;69.80;;;;;;5032764;28;20938;-63
2022/05/12 09:21:17;;;;;;;2.10;1.90;;;21.80;69.70;;;;;;5033153;28;21008;-63
2022/05/12 09:23:45;;;;;;;2.30;2.20;;;21.70;69.30;;;;;;5032895;28;20449;-63
2022/05/12 09:26:35;;;;;;;2.43;2.23;;;21.70;69.10;;;;;;5032383;28;20482;-63
2022/05/12 09:29:19;;;;;;;2.47;2.00;;;21.70;69.00;;;;;;5032731;28;20503;-63
2022/05/12 09:31:49;;;;;;;2.50;2.30;;;21.70;69.40;;;;;;5032703;28;20825;-63
2022/05/12 09:34:29;;;;;;;2.00;1.90;;;21.70;68.50;;;;;;5032936;28;20441;-63
2022/05/12 09:36:56;;;;;;;3.43;2.23;;;21.70;68.30;;;;;;5032895;28;20831;-62
2022/05/12 09:39:36;;;;;;;1.90;1.80;;;21.70;68.00;;;;;;5032513;28;20445;-62
2022/05/12 09:42:03;;;;;;;2.03;1.90;;;21.70;67.90;;;;;;5032781;28;20468;-63
2022/05/12 09:44:34;;;;;;;2.03;1.93;;;21.70;67.80;;;;;;5032578;28;20441;-61
2022/05/12 09:47:07;;;;;;;2.67;2.47;;;21.70;67.50;;;;;;5032160;28;20519;-63
2022/05/12 09:49:35;;;;;;;1.83;1.73;;;21.70;67.10;;;;;;5032298;28;20487;-63
2022/05/12 09:52:31;;;;;;;1.43;1.40;;;21.80;67.00;;;;;;5032496;28;20469;-61
2022/05/12 09:55:14;;;;;;;1.87;1.87;;;21.80;66.90;;;;;;5032314;28;20831;-62
2022/05/12 09:57:52;;;;;;;1.97;1.63;;;21.80;66.70;;;;;;5032088;28;20452;-62
2022/05/12 10:00:37;;;;;;;2.00;1.77;;;21.80;66.50;;;;;;5032294;28;20445;-62
2022/05/12 10:09:06;;;;;;;1.50;1.40;;;21.80;65.70;;;;;;4990569;28;20427;-60
2022/05/12 10:11:40;;;;;;;2.93;1.63;;;21.80;65.50;;;;;;4990346;28;20468;-63
2022/05/12 10:14:12;;;;;;;1.70;1.60;;;21.80;65.00;;;;;;5012639;28;20494;-63
2022/05/12 10:16:41;;;;;;;1.60;1.50;;;21.80;64.90;;;;;;5031546;28;20479;-63
2022/05/12 10:19:22;;;;;;;2.80;1.50;;;21.80;64.80;;;;;;5031873;28;20448;-63
2022/05/12 10:21:56;;;;;;;2.03;1.80;;;21.80;64.70;;;;;;5031863;28;20461;-63
2022/05/12 10:24:32;;;;;;;1.50;1.40;;;21.80;64.70;;;;;;5031843;28;20442;-61
2022/05/12 10:27:07;;;;;;;1.50;1.50;;;21.70;64.50;;;;;;5031733;28;20484;-62
2022/05/12 10:29:50;;;;;;;1.57;1.47;;;21.80;65.00;;;;;;5031726;28;20445;-62
2022/05/12 10:32:33;;;;;;;1.57;1.47;;;21.80;64.80;;;;;;5031892;28;20476;-62
2022/05/12 10:35:09;;;;;;;1.70;1.60;;;21.80;64.50;;;;;;5031765;28;20452;-62
2022/05/12 10:37:48;;;;;;;1.20;1.20;;;21.80;64.30;;;;;;5031458;28;20498;-63
2022/05/12 10:40:27;;;;;;;2.40;1.80;;;21.80;63.50;;;;;;5031764;28;20445;-62
2022/05/12 10:43:02;;;;;;;1.60;1.50;;;21.80;63.30;;;;;;5031586;28;20452;-63
2022/05/12 10:45:34;;;;;;;1.30;1.30;;;21.90;62.90;;;;;;5031483;28;21040;-63
2022/05/12 10:48:30;;;;;;;1.47;1.40;;;21.90;62.20;;;;;;5031373;28;20456;-59
2022/05/12 10:51:00;;;;;;;2.83;1.67;;;21.90;62.00;;;;;;5028354;28;20958;-60
2022/05/12 10:53:48;;;;;;;1.23;1.23;;;21.90;61.50;;;;;;5031532;28;20860;-63
2022/05/12 10:56:29;;;;;;;1.40;1.33;;;21.90;61.00;;;;;;5031501;28;20495;-60
2022/05/12 10:59:11;;;;;;;1.67;1.57;;;21.90;61.70;;;;;;5031332;28;20965;-61
2022/05/12 11:01:41;;;;;;;2.60;1.67;;;21.90;61.00;;;;;;5031330;28;20992;-61
2022/05/12 11:04:14;;;;;;;2.87;2.67;;;21.90;60.20;;;;;;5031510;28;20449;-62
2022/05/12 11:06:44;;;;;;;2.20;1.33;;;21.90;59.80;;;;;;5031143;28;20485;-63
2022/05/12 11:09:16;;;;;;;2.97;1.43;;;21.90;59.70;;;;;;5031317;28;20448;-62
2022/05/12 11:11:49;;;;;;;1.20;1.20;;;22.00;59.80;;;;;;5031183;28;20479;-60
2022/05/12 11:14:22;;;;;;;1.77;1.70;;;22.00;59.60;;;;;;5031369;28;20448;-61
2022/05/12 11:17:00;;;;;;;1.20;1.20;;;22.00;59.50;;;;;;5031370;28;20452;-61
2022/05/12 11:19:29;;;;;;;1.63;1.23;;;22.00;59.50;;;;;;5032589;28;20528;-63
2022/05/12 11:22:08;;;;;;;1.13;1.13;;;22.00;59.40;;;;;;5035114;28;20475;-63
2022/05/12 11:24:46;;;;;;;1.40;1.30;;;22.00;59.40;;;;;;5035130;28;20444;-63
2022/05/12 11:27:25;;;;;;;1.90;1.80;;;22.00;59.40;;;;;;5034810;28;20480;-62
2022/05/12 11:30:01;;;;;;;1.97;1.60;;;22.00;59.40;;;;;;5035049;28;20441;-63
2022/05/12 11:32:43;;;;;;;2.10;1.70;;;22.00;59.50;;;;;;5035072;28;20463;-63
2022/05/12 11:35:16;;;;;;;3.57;2.07;;;22.00;59.30;;;;;;5035063;28;20956;-63
2022/05/12 11:38:00;;;;;;;1.80;1.70;;;22.00;59.10;;;;;;5034658;28;20527;-63
2022/05/12 11:40:50;;;;;;;1.50;1.40;;;22.00;58.80;;;;;;5034789;28;20433;-63
2022/05/12 11:46:31;;;;;;;1.13;1.13;;;22.10;58.30;;;;;;5034516;28;20471;-63
2022/05/12 11:49:00;;;;;;;1.43;1.43;;;22.10;58.20;;;;;;5034651;28;20448;-61
2022/05/12 11:51:41;;;;;;;2.30;1.50;;;22.10;57.90;;;;;;5034506;28;20464;-62
2022/05/12 11:54:12;;;;;;;2.20;1.40;;;22.10;57.50;;;;;;5034595;28;20492;-60
2022/05/12 11:56:44;;;;;;;1.20;1.17;;;22.00;57.20;;;;;;5034341;28;20810;-60
2022/05/12 11:59:24;;;;;;;1.27;1.27;;;22.00;57.10;;;;;;5034570;28;20816;-63
2022/05/12 12:01:55;;;;;;;1.73;1.63;;;22.10;57.10;;;;;;5034200;28;20476;-63
2022/05/12 12:04:48;;;;;;;1.50;1.40;;;22.10;57.00;;;;;;5034530;28;20444;-62
2022/05/12 12:07:39;;;;;;;1.40;1.40;;;22.10;57.10;;;;;;5034075;28;20480;-63
2022/05/12 12:10:09;;;;;;;1.23;1.23;;;22.10;57.00;;;;;;5034037;28;20449;-62
2022/05/12 12:13:36;;;;;;;2.03;1.40;;;22.10;56.80;;;;;;5034572;28;20500;-61
2022/05/12 12:16:10;;;;;;;1.73;1.50;;;22.20;56.90;;;;;;4987242;28;20441;-63
2022/05/12 12:18:50;;;;;;;1.20;1.20;;;22.20;57.10;;;;;;5034118;28;20439;-61
2022/05/12 12:21:40;;;;;;;2.93;2.13;;;22.20;57.20;;;;;;5033822;28;20461;-62
2022/05/12 12:24:28;;;;;;;1.20;1.20;;;22.20;57.20;;;;;;5033919;28;20451;-61
2022/05/12 12:27:33;;;;;;;1.57;1.47;;;22.20;57.20;;;;;;5033680;28;20477;-62
2022/05/12 12:30:24;;;;;;;1.43;1.43;;;22.30;57.30;;;;;;4993360;28;20449;-62
2022/05/12 12:33:10;;;;;;;1.53;1.47;;;22.30;57.30;;;;;;5033372;28;20453;-63
2022/05/12 12:35:55;;;;;;;1.40;1.30;;;22.30;57.10;;;;;;5033737;28;20451;-61
2022/05/12 12:38:52;;;;;;;2.00;1.90;;;22.30;56.80;;;;;;5033577;28;21010;-62
2022/05/12 12:41:20;;;;;;;3.10;2.90;;;22.30;56.70;;;;;;5020997;28;20473;-61
2022/05/12 12:43:56;;;;;;;1.90;1.80;;;22.30;56.30;;;;;;5033495;28;20468;-59
2022/05/12 12:46:26;;;;;;;4.20;1.53;;;22.30;56.00;;;;;;5033172;28;20508;-62
2022/05/12 12:48:58;;;;;;;1.23;1.23;;;22.30;55.40;;;;;;5033318;28;20454;-61
2022/05/12 12:51:29;;;;;;;2.40;1.77;;;22.30;55.20;;;;;;5033335;28;20472;-62
2022/05/12 12:56:42;;;;;;;1.50;1.40;;;22.40;54.70;;;;;;5033218;28;20452;-63
2022/05/12 12:59:17;;;;;;;2.97;1.40;;;22.40;54.40;;;;;;5033203;28;21026;-63
2022/05/12 13:01:50;;;;;;;1.47;1.37;;;22.40;54.20;;;;;;5033171;28;20825;-59
2022/05/12 13:04:21;;;;;;;2.80;2.17;;;22.40;53.80;;;;;;5033437;28;20969;-62
2022/05/12 13:06:54;;;;;;;1.93;1.73;;;22.40;53.70;;;;;;5032875;28;20829;-63
2022/05/12 13:09:26;;;;;;;1.83;1.70;;;22.50;53.70;;;;;;5032973;28;20449;-61
2022/05/12 13:12:08;;;;;;;1.37;1.37;;;22.40;53.60;;;;;;5032710;28;20473;-61
2022/05/12 13:14:37;;;;;;;1.93;1.80;;;22.40;53.40;;;;;;5032991;28;20445;-62
2022/05/12 13:17:06;;;;;;;2.60;1.70;;;22.50;53.50;;;;;;5032775;28;20445;-60
2022/05/12 13:19:38;;;;;;;1.43;1.40;;;22.50;53.30;;;;;;5032847;28;20456;-61
2022/05/12 13:22:06;;;;;;;2.07;1.93;;;22.50;53.40;;;;;;5032745;28;20540;-62
2022/05/12 13:24:35;;;;;;;2.00;1.90;;;22.50;52.70;;;;;;5032693;28;20934;-60
2022/05/12 13:27:04;;;;;;;2.93;1.47;;;22.50;52.50;;;;;;5032584;28;20994;-61
2022/05/12 13:29:34;;;;;;;2.80;1.30;;;22.50;52.30;;;;;;5032663;28;20499;-61
2022/05/12 13:32:08;;;;;;;1.87;1.50;;;22.50;52.50;;;;;;5032805;28;20753;-62